Lloret de Mar, Spain
Current Conditions -  °F | °C
As of 12:30 AM on Monday 22 Dec 2014 (Local Time) from LEGE Reporting Station
Light Fog Light Fog  
Wind Chill: 37°   Ceiling: Unl
Heat Index: 37°   Visibility: 0.93mi
Dew Point: 37°   Wind: 0mph
Humidity: 100%   Direction: NA
Pressure: 30.48"   Gusts: NA
Location:  41.7°N, 2.85°E
Report Text: LEGE 212330Z 00000KT 1500 R20/1100U BCFG FEW001 03/03 Q1032
Loading
Personal Weather Stations






























Interactive Weather Map New forecast layout! Learn more

10-Day Weather Forecast

Advertisements
Track Severe Weather on mobile